»·PEaware :: N1836 KBUR-MMTJ

N1836 :: KBUR-MMTJ

FLIGHT INFORMATION

Flight Status: Arrived
Operator: Privately registered:
United States
More flights under this callsign
Pilot: Sergio L. (2230)
Aircraft: Unknown
(SF50)
More flights by this aircraft type
Origin: KBUR Bob Hope-Burbank
United States
Destination: MMTJ Gen Abelardo L Rodriguez Intl
Mexico
More flights between these airports :: More routes between these airports
Route: VNY3 TWINE V518 KIMMO V459 SLI SLI171 LAX118 CARDI MZB320 MZB
File this flight plan on PilotEdge
Remarks:
Altitude:
(Current/Filed)
17,000ft
Speed:
(Current/Filed)
200kts
Departed: 13-Mar-18 08:54 PM
Arrived: 13-Mar-18 09:37 PM
Distance/Time
Traveled:
121nm/0:43
Distance/Time
To Go:
Arrived

Flight Plot

Page will automatically refresh every two minutes.

Flight plan parsing failed; only flown route is shown


Map Options




Map Legend


Flown Route
Filed Route
Departure Airport
Arrival Airport
Navaid (VOR, NDB)
Fix

Horizontal Profiles

Position Reports

Time Latitude Longitude Heading Altitude Ground
Speed
13-Mar-18 20:12 34.200196 -118.358739 263 781ft 0kts
13-Mar-18 20:13 34.200196 -118.358739 263 781ft 0kts
13-Mar-18 20:18 34.200196 -118.358739 263 781ft 0kts
13-Mar-18 20:19 34.200196 -118.358739 263 781ft 0kts
13-Mar-18 20:20 34.200196 -118.358739 263 781ft 0kts
13-Mar-18 20:21 34.200196 -118.358739 263 781ft 0kts
13-Mar-18 20:22 34.200196 -118.358739 263 781ft 0kts
13-Mar-18 20:23 34.200196 -118.358739 263 781ft 0kts
13-Mar-18 20:24 34.200196 -118.358739 263 781ft 0kts
13-Mar-18 20:25 34.200196 -118.358739 263 781ft 0kts
13-Mar-18 20:26 34.200196 -118.358739 263 781ft 0kts
13-Mar-18 20:27 34.200196 -118.358739 263 781ft 0kts
13-Mar-18 20:28 34.200196 -118.358739 263 781ft 0kts
13-Mar-18 20:29 34.200196 -118.358739 263 781ft 0kts
13-Mar-18 20:30 34.200196 -118.358739 263 781ft 0kts
13-Mar-18 20:31 34.200196 -118.358739 263 781ft 0kts
13-Mar-18 20:32 34.200196 -118.358739 263 781ft 0kts
13-Mar-18 20:33 34.200196 -118.358739 263 781ft 0kts
13-Mar-18 20:34 34.200196 -118.358739 263 781ft 0kts
13-Mar-18 20:35 34.200196 -118.358739 263 781ft 0kts
13-Mar-18 20:36 34.200196 -118.358739 263 781ft 0kts
13-Mar-18 20:37 34.200196 -118.358739 263 781ft 0kts
13-Mar-18 20:38 34.200196 -118.358739 263 781ft 0kts
13-Mar-18 20:39 34.200196 -118.358739 263 781ft 0kts
13-Mar-18 20:40 34.200196 -118.358739 263 781ft 0kts
13-Mar-18 20:41 34.200196 -118.358739 263 781ft 0kts
13-Mar-18 20:42 34.200196 -118.358739 263 781ft 0kts
13-Mar-18 20:43 34.200196 -118.358739 263 781ft 0kts
13-Mar-18 20:44 34.200195 -118.358749 263 781ft 2kts
13-Mar-18 20:45 34.199699 -118.359336 246 782ft 0kts
13-Mar-18 20:46 34.199343 -118.358812 109 781ft 0kts
13-Mar-18 20:47 34.199339 -118.358747 87 781ft 4kts
13-Mar-18 20:48 34.201288 -118.358562 345 782ft 6kts
13-Mar-18 20:49 34.204019 -118.359288 349 781ft 7kts
13-Mar-18 20:50 34.207893 -118.360367 346 781ft 13kts
13-Mar-18 20:51 34.210441 -118.361086 346 782ft 7kts
13-Mar-18 20:52 34.211629 -118.361217 36 782ft 4kts
13-Mar-18 20:53 34.204401 -118.358357 166 839ft 137kts
13-Mar-18 20:54 34.155808 -118.379761 227 2156ft 192kts
13-Mar-18 20:55 34.123787 -118.424774 245 3143ft 175kts
13-Mar-18 20:56 34.158720 -118.455163 351 4184ft 201kts
13-Mar-18 20:57 34.216059 -118.465044 351 5202ft 213kts
13-Mar-18 20:58 34.275039 -118.474922 359 6192ft 217kts
13-Mar-18 20:59 34.283645 -118.416425 111 7185ft 217kts
13-Mar-18 21:00 34.261168 -118.348697 111 8181ft 217kts
13-Mar-18 21:01 34.215514 -118.305383 152 9173ft 217kts
13-Mar-18 21:02 34.158927 -118.271532 154 10212ft 245kts
13-Mar-18 21:03 34.092430 -118.232894 154 11044ft 282kts
13-Mar-18 21:04 34.023158 -118.192824 154 10860ft 268kts
13-Mar-18 21:05 33.958481 -118.155547 154 10895ft 251kts
13-Mar-18 21:06 33.896201 -118.119691 154 10899ft 246kts
13-Mar-18 21:07 33.834619 -118.084231 154 10899ft 245kts
13-Mar-18 21:08 33.772649 -118.050830 170 10887ft 244kts
13-Mar-18 21:09 33.705400 -118.045375 177 10898ft 241kts
13-Mar-18 21:10 33.643088 -118.019213 146 10900ft 241kts
13-Mar-18 21:11 33.588120 -117.973482 143 10900ft 240kts
13-Mar-18 21:12 33.539000 -117.919233 132 10899ft 240kts
13-Mar-18 21:13 33.493169 -117.861066 133 10899ft 242kts
13-Mar-18 21:14 33.446716 -117.802096 133 10899ft 246kts
13-Mar-18 21:15 33.399402 -117.742022 133 10902ft 252kts
13-Mar-18 21:16 33.350848 -117.680307 133 10892ft 256kts
13-Mar-18 21:17 33.301890 -117.618091 133 10881ft 257kts
13-Mar-18 21:18 33.252856 -117.555767 133 10881ft 258kts
13-Mar-18 21:19 33.201805 -117.495428 137 10880ft 258kts
13-Mar-18 21:20 33.150077 -117.436177 139 10881ft 258kts
13-Mar-18 21:21 33.087559 -117.394894 154 10882ft 258kts
13-Mar-18 21:22 33.033498 -117.364658 154 10880ft 258kts
13-Mar-18 21:23 32.957550 -117.322472 154 10881ft 258kts
13-Mar-18 21:24 32.903633 -117.292593 154 10881ft 258kts
13-Mar-18 21:25 32.838733 -117.256690 154 10830ft 257kts
13-Mar-18 21:26 32.771539 -117.213707 140 9626ft 232kts
13-Mar-18 21:27 32.732474 -117.172617 138 8798ft 225kts
13-Mar-18 21:28 32.685540 -117.122898 138 7803ft 227kts
13-Mar-18 21:29 32.638532 -117.073106 138 6797ft 220kts
13-Mar-18 21:30 32.595069 -117.027136 138 5775ft 200kts
13-Mar-18 21:31 32.549914 -116.993327 162 4762ft 188kts
13-Mar-18 21:32 32.514067 -116.971539 101 3917ft 136kts
13-Mar-18 21:33 32.508747 -116.928134 70 2909ft 120kts
13-Mar-18 21:34 32.530209 -116.919483 320 2060ft 90kts
13-Mar-18 21:35 32.538185 -116.949036 279 686ft 85kts
13-Mar-18 21:36 32.540406 -116.965489 281 493ft 20kts
13-Mar-18 21:37 32.541335 -116.971054 283 492ft 12kts
13-Mar-18 21:38 32.542351 -116.973505 306 493ft 4kts
13-Mar-18 21:39 32.543795 -116.974413 281 492ft 10kts
13-Mar-18 21:40 32.544812 -116.977920 340 492ft 7kts
13-Mar-18 21:41 32.545707 -116.978568 33 492ft 2kts
13-Mar-18 21:42 32.545780 -116.978593 287 492ft 0kts

Navigation Log

Ident Type
Flight plan parsing failed, navigation log unavailable